createdAt,value
2022-12-18T00:02:49.779Z,69.62
2022-12-18T00:05:53.273Z,69.86
2022-12-18T00:08:57.463Z,68.17
2022-12-18T00:11:59.790Z,68.03
2022-12-18T00:15:02.137Z,68.73
2022-12-18T00:18:05.537Z,67.98
2022-12-18T00:21:11.341Z,68.18
2022-12-18T00:24:13.713Z,67.44
2022-12-18T00:27:16.095Z,68.40
2022-12-18T00:30:18.684Z,70.68
2022-12-18T00:33:21.017Z,70.78
2022-12-18T00:36:29.101Z,71.30
2022-12-18T00:39:31.502Z,71.44
2022-12-18T00:42:53.550Z,71.23
2022-12-18T00:45:55.944Z,71.85
2022-12-18T00:48:58.457Z,72.31
2022-12-18T00:52:00.810Z,71.34
2022-12-18T00:55:06.435Z,70.88
2022-12-18T00:58:10.462Z,69.96
2022-12-18T01:01:12.843Z,70.84
2022-12-18T01:04:16.272Z,70.51
2022-12-18T01:07:21.376Z,69.81
2022-12-18T01:10:24.598Z,70.04
2022-12-18T01:13:27.766Z,69.41
2022-12-18T01:16:30.173Z,69.88
2022-12-18T01:19:33.217Z,70.04
2022-12-18T01:22:36.311Z,69.89
2022-12-18T01:25:39.647Z,70.66
2022-12-18T01:28:45.820Z,69.03
2022-12-18T01:31:48.305Z,69.26
2022-12-18T01:34:50.726Z,69.28
2022-12-18T01:37:56.210Z,69.84
2022-12-18T01:40:59.816Z,69.83
2022-12-18T01:44:02.122Z,69.93
2022-12-18T01:47:04.774Z,69.58
2022-12-18T01:50:15.727Z,68.98
2022-12-18T01:53:24.579Z,69.13
2022-12-18T01:56:27.030Z,68.65
2022-12-18T01:59:32.386Z,68.95
2022-12-18T02:02:35.274Z,69.32
2022-12-18T02:06:02.335Z,69.28
2022-12-18T02:09:19.384Z,70.18
2022-12-18T02:12:25.515Z,69.80
2022-12-18T02:15:49.398Z,69.88
2022-12-18T02:18:59.118Z,69.37
2022-12-18T02:22:13.243Z,69.82
2022-12-18T02:25:43.634Z,69.96
2022-12-18T02:29:01.479Z,69.58
2022-12-18T02:32:11.458Z,70.14
2022-12-18T02:35:19.612Z,70.34
2022-12-18T02:38:23.681Z,69.37
2022-12-18T02:41:28.398Z,68.84
2022-12-18T02:44:30.814Z,68.97
2022-12-18T02:47:39.094Z,69.37
2022-12-18T02:51:28.936Z,68.98
2022-12-18T02:54:54.570Z,69.26
2022-12-18T02:58:11.435Z,69.20
2022-12-18T03:01:24.175Z,69.43
2022-12-18T03:04:39.418Z,69.40
2022-12-18T03:07:57.330Z,69.75
2022-12-18T03:11:05.708Z,70.46
2022-12-18T03:14:12.519Z,70.98
2022-12-18T03:17:20.410Z,71.15
2022-12-18T03:20:25.592Z,70.66
2022-12-18T03:23:35.602Z,71.56
2022-12-18T03:26:44.561Z,72.13
2022-12-18T03:30:11.195Z,71.91
2022-12-18T03:33:20.720Z,72.02
2022-12-18T03:36:25.705Z,71.56
2022-12-18T03:39:28.366Z,71.21
2022-12-18T03:42:40.438Z,70.86
2022-12-18T03:45:58.584Z,71.34
2022-12-18T03:49:23.534Z,71.22
2022-12-18T03:52:25.954Z,73.18
2022-12-18T03:55:34.588Z,71.79
2022-12-18T03:58:42.276Z,72.90
2022-12-18T04:01:56.003Z,73.10
2022-12-18T04:05:03.668Z,75.14
2022-12-18T04:08:06.288Z,75.36
2022-12-18T04:11:12.360Z,75.77
2022-12-18T04:14:17.988Z,75.14
2022-12-18T04:17:22.902Z,75.43
2022-12-18T04:20:25.878Z,75.08
2022-12-18T04:23:29.387Z,75.44
2022-12-18T04:26:34.214Z,77.63
2022-12-18T04:29:50.345Z,76.52
2022-12-18T04:32:54.135Z,75.39
2022-12-18T04:35:57.723Z,73.83
2022-12-18T04:39:01.522Z,74.62
2022-12-18T04:42:04.035Z,74.56
2022-12-18T04:45:07.159Z,76.51
2022-12-18T04:48:09.618Z,76.80
2022-12-18T04:51:12.951Z,76.12
2022-12-18T04:54:15.310Z,75.64
2022-12-18T04:57:19.023Z,74.90
2022-12-18T05:00:21.811Z,75.37
2022-12-18T05:03:24.251Z,74.70
2022-12-18T05:06:26.659Z,74.48
2022-12-18T05:09:29.026Z,73.42
2022-12-18T05:12:32.530Z,72.88
2022-12-18T05:15:35.372Z,71.85
2022-12-18T05:18:38.083Z,71.53
2022-12-18T05:21:40.416Z,73.07
2022-12-18T05:24:42.801Z,72.30
2022-12-18T05:27:45.951Z,72.95
2022-12-18T05:30:53.332Z,70.68
2022-12-18T05:33:55.753Z,72.33
2022-12-18T05:36:58.148Z,73.55
2022-12-18T05:40:00.667Z,74.02
2022-12-18T05:43:03.054Z,73.52
2022-12-18T05:46:12.639Z,73.63
2022-12-18T05:49:15.225Z,74.15
2022-12-18T05:52:17.834Z,74.24
2022-12-18T05:55:20.204Z,75.26
2022-12-18T05:58:22.584Z,74.44
2022-12-18T06:01:27.439Z,73.40
2022-12-18T06:04:30.045Z,74.05
2022-12-18T06:07:32.387Z,74.18
2022-12-18T06:10:34.823Z,74.18
2022-12-18T06:13:39.288Z,74.65
2022-12-18T06:16:41.950Z,75.18
2022-12-18T06:19:44.301Z,74.90
2022-12-18T06:22:46.866Z,75.26
2022-12-18T06:25:49.182Z,73.83
2022-12-18T06:28:51.556Z,74.79
2022-12-18T06:31:54.006Z,75.10
2022-12-18T06:34:56.546Z,72.18
2022-12-18T06:37:58.949Z,74.11
2022-12-18T06:41:01.473Z,74.36
2022-12-18T06:44:04.126Z,71.07
2022-12-18T06:47:06.503Z,70.00
2022-12-18T06:50:08.934Z,70.02
2022-12-18T06:53:11.291Z,68.66
2022-12-18T06:56:13.882Z,69.28
2022-12-18T06:59:16.339Z,68.93
2022-12-18T07:02:19.018Z,67.09
2022-12-18T07:05:21.490Z,67.59
2022-12-18T07:08:24.059Z,67.91
2022-12-18T07:11:26.557Z,66.92
2022-12-18T07:14:28.937Z,66.92
2022-12-18T07:17:32.334Z,64.42
2022-12-18T07:20:34.762Z,65.72
2022-12-18T07:23:37.880Z,65.82
2022-12-18T07:26:40.518Z,64.71
2022-12-18T07:29:42.879Z,64.28
2022-12-18T07:32:45.238Z,65.72
2022-12-18T07:35:47.624Z,65.67
2022-12-18T07:38:50.757Z,66.24
2022-12-18T07:42:11.578Z,66.04
2022-12-18T07:45:16.005Z,66.87
2022-12-18T07:48:18.410Z,65.84
2022-12-18T07:51:20.895Z,64.83
2022-12-18T07:54:24.138Z,64.30
2022-12-18T07:57:49.413Z,64.59
2022-12-18T08:00:48.896Z,64.34
2022-12-18T08:03:52.213Z,64.93
2022-12-18T08:06:54.783Z,65.02
2022-12-18T08:09:57.186Z,64.30
2022-12-18T08:13:04.555Z,64.76
2022-12-18T08:16:09.070Z,62.40
2022-12-18T08:19:11.550Z,61.63
2022-12-18T08:22:13.970Z,61.85
2022-12-18T08:25:16.524Z,58.16
2022-12-18T08:28:19.046Z,54.01
2022-12-18T08:31:22.354Z,50.52
2022-12-18T08:34:25.949Z,46.94
2022-12-18T08:37:28.346Z,43.84
2022-12-18T08:40:30.799Z,42.34
2022-12-18T08:43:51.944Z,40.13
2022-12-18T08:46:54.312Z,39.28
2022-12-18T08:49:56.827Z,38.17
2022-12-18T08:52:59.218Z,37.20
2022-12-18T08:56:01.582Z,38.34
2022-12-18T08:59:05.391Z,37.33
2022-12-18T09:02:10.988Z,35.81
2022-12-18T09:05:13.580Z,34.82
2022-12-18T09:08:15.925Z,35.99
2022-12-18T09:11:24.391Z,42.63
2022-12-18T09:14:26.823Z,41.41
2022-12-18T09:17:29.259Z,43.84
2022-12-18T09:20:31.646Z,41.80
2022-12-18T09:23:34.047Z,39.89
2022-12-18T09:26:37.415Z,39.42
2022-12-18T09:29:40.594Z,39.15
2022-12-18T09:32:43.002Z,40.21
2022-12-18T09:35:46.567Z,39.84
2022-12-18T09:38:49.092Z,38.27
2022-12-18T09:41:58.951Z,39.95
2022-12-18T09:45:01.973Z,41.09
2022-12-18T09:48:08.117Z,43.79
2022-12-18T09:51:18.515Z,42.86
2022-12-18T09:54:31.307Z,42.06
2022-12-18T09:57:38.393Z,46.72
2022-12-18T10:00:44.085Z,48.11
2022-12-18T10:03:46.836Z,50.35
2022-12-18T10:07:17.722Z,52.45
2022-12-18T10:10:50.561Z,53.89
2022-12-18T10:13:56.482Z,54.67
2022-12-18T10:17:09.323Z,56.24
2022-12-18T10:20:30.356Z,54.22
2022-12-18T10:23:58.314Z,54.58
2022-12-18T10:27:15.515Z,55.74
2022-12-18T10:30:20.639Z,55.54
2022-12-18T10:33:25.502Z,56.03
2022-12-18T10:36:27.907Z,55.66
2022-12-18T10:39:30.402Z,54.80
2022-12-18T10:42:32.922Z,56.53
2022-12-18T10:45:36.105Z,56.40
2022-12-18T10:48:48.524Z,56.05
2022-12-18T10:51:52.495Z,57.55
2022-12-18T10:55:04.746Z,57.40
2022-12-18T10:58:35.317Z,57.93
2022-12-18T11:01:48.697Z,58.04
2022-12-18T11:04:52.805Z,56.20
2022-12-18T11:07:55.481Z,55.24
2022-12-18T11:10:57.907Z,54.02
2022-12-18T11:14:05.345Z,53.96
2022-12-18T11:17:29.219Z,55.92
2022-12-18T11:20:37.530Z,56.72
2022-12-18T11:24:18.731Z,57.86
2022-12-18T11:27:21.961Z,58.41
2022-12-18T11:30:27.136Z,57.38
2022-12-18T11:33:29.568Z,57.54
2022-12-18T11:36:38.003Z,58.65
2022-12-18T11:39:53.947Z,61.35
2022-12-18T11:43:04.858Z,63.45
2022-12-18T11:46:19.664Z,63.86
2022-12-18T11:49:27.884Z,64.28
2022-12-18T11:52:39.241Z,63.82
2022-12-18T11:56:30.615Z,62.49
2022-12-18T11:59:46.283Z,62.20
2022-12-18T12:02:57.641Z,62.50
2022-12-18T12:06:20.531Z,63.50
2022-12-18T12:09:34.998Z,62.90
2022-12-18T12:12:55.734Z,63.52
2022-12-18T12:16:10.870Z,64.55
2022-12-18T12:19:37.914Z,62.43
2022-12-18T12:23:16.200Z,63.71
2022-12-18T12:26:41.472Z,61.82
2022-12-18T12:30:00.051Z,62.33
2022-12-18T12:33:22.362Z,63.12
2022-12-18T12:36:47.933Z,63.77
2022-12-18T12:39:53.601Z,61.81
2022-12-18T12:43:14.372Z,61.93
2022-12-18T12:46:20.933Z,62.42
2022-12-18T12:49:30.113Z,63.54
2022-12-18T12:52:52.018Z,62.04
2022-12-18T12:55:55.919Z,61.62
2022-12-18T12:59:24.600Z,61.04
2022-12-18T13:02:34.338Z,62.00
2022-12-18T13:05:54.077Z,61.29
2022-12-18T13:09:01.659Z,62.83
2022-12-18T13:12:34.991Z,60.54
2022-12-18T13:16:20.423Z,62.34
2022-12-18T13:19:26.378Z,63.33
2022-12-18T13:22:37.278Z,63.18
2022-12-18T13:25:39.797Z,62.54
2022-12-18T13:28:48.275Z,61.84
2022-12-18T13:31:50.637Z,62.29
2022-12-18T13:35:18.949Z,63.39
2022-12-18T13:38:36.642Z,61.75
2022-12-18T13:41:39.382Z,64.35
2022-12-18T13:44:42.757Z,62.50
2022-12-18T13:47:46.578Z,63.09
2022-12-18T13:51:10.134Z,63.83
2022-12-18T13:54:31.230Z,63.12
2022-12-18T13:57:44.766Z,64.82
2022-12-18T14:00:47.281Z,64.75
2022-12-18T14:03:51.315Z,63.91
2022-12-18T14:06:58.311Z,64.86
2022-12-18T14:10:12.618Z,64.61
2022-12-18T14:13:35.546Z,65.18
2022-12-18T14:16:37.945Z,62.95
2022-12-18T14:19:51.907Z,64.31
2022-12-18T14:22:55.463Z,65.36
2022-12-18T14:26:02.235Z,65.23
2022-12-18T14:29:28.898Z,64.93
2022-12-18T14:32:31.229Z,64.02
2022-12-18T14:35:36.278Z,64.29
2022-12-18T14:38:41.018Z,67.31
2022-12-18T14:41:43.434Z,67.19
2022-12-18T14:48:19.115Z,67.49
2022-12-18T14:51:28.193Z,69.20
2022-12-18T14:54:32.399Z,68.06
2022-12-18T14:57:38.890Z,67.93
2022-12-18T15:00:43.451Z,68.92
2022-12-18T15:03:45.970Z,68.93
2022-12-18T15:06:49.271Z,69.74
2022-12-18T15:10:23.179Z,68.63
2022-12-18T15:13:25.899Z,69.86
2022-12-18T15:16:28.985Z,70.73
2022-12-18T15:19:43.696Z,70.66
2022-12-18T15:22:48.476Z,70.67
2022-12-18T15:25:58.510Z,70.86
2022-12-18T15:29:03.695Z,71.68
2022-12-18T15:32:20.090Z,71.09
2022-12-18T15:35:25.214Z,71.28
2022-12-18T15:38:28.037Z,70.11
2022-12-18T15:41:36.040Z,70.14
2022-12-18T15:44:38.835Z,70.04
2022-12-18T15:47:44.980Z,71.07
2022-12-18T15:50:47.739Z,70.71
2022-12-18T15:53:53.910Z,69.61
2022-12-18T15:57:14.665Z,69.09
2022-12-18T16:00:17.795Z,68.45
2022-12-18T16:03:20.458Z,67.76
2022-12-18T16:06:23.572Z,67.43
2022-12-18T16:09:26.367Z,67.54
2022-12-18T16:12:29.473Z,67.72
2022-12-18T16:15:32.011Z,68.69
2022-12-18T16:18:34.635Z,68.88
2022-12-18T16:21:37.617Z,69.00
2022-12-18T16:24:40.111Z,69.81
2022-12-18T16:27:42.715Z,70.30
2022-12-18T16:30:46.467Z,69.89
2022-12-18T16:33:48.929Z,69.66
2022-12-18T16:36:51.384Z,69.60
2022-12-18T16:39:53.959Z,69.21
2022-12-18T16:42:56.371Z,69.21
2022-12-18T16:46:00.312Z,68.53
2022-12-18T16:49:02.982Z,68.92
2022-12-18T16:52:06.653Z,69.28
2022-12-18T16:55:10.027Z,69.60
2022-12-18T16:58:13.080Z,67.89
2022-12-18T17:01:15.854Z,68.11
2022-12-18T17:04:18.410Z,70.12
2022-12-18T17:07:21.167Z,69.02
2022-12-18T17:10:23.948Z,69.31
2022-12-18T17:13:27.607Z,69.30
2022-12-18T17:16:30.277Z,70.59
2022-12-18T17:19:33.975Z,72.01
2022-12-18T17:22:36.382Z,73.47
2022-12-18T17:25:41.819Z,74.41
2022-12-18T17:28:44.501Z,74.04
2022-12-18T17:31:48.139Z,71.55
2022-12-18T17:34:50.785Z,72.04
2022-12-18T17:37:53.313Z,73.01
2022-12-18T17:41:01.440Z,74.19
2022-12-18T17:44:06.205Z,73.63
2022-12-18T17:47:12.025Z,72.94
2022-12-18T17:50:14.814Z,72.77
2022-12-18T17:53:17.399Z,71.58
2022-12-18T17:56:22.084Z,71.34
2022-12-18T17:59:24.967Z,70.58
2022-12-18T18:02:27.759Z,68.98
2022-12-18T18:05:30.870Z,67.67
2022-12-18T18:08:35.208Z,67.78
2022-12-18T18:11:56.316Z,68.04
2022-12-18T18:14:59.160Z,67.94
2022-12-18T18:18:01.999Z,68.30
2022-12-18T18:21:06.303Z,67.61
2022-12-18T18:24:11.284Z,69.48
2022-12-18T18:27:14.107Z,71.09
2022-12-18T18:30:16.923Z,70.59
2022-12-18T18:33:19.659Z,69.85
2022-12-18T18:36:23.607Z,71.24
2022-12-18T18:39:26.813Z,72.13
2022-12-18T18:42:29.983Z,73.69
2022-12-18T18:45:32.619Z,71.64
2022-12-18T18:48:37.354Z,72.57
2022-12-18T18:51:41.542Z,73.39
2022-12-18T18:55:10.732Z,73.55
2022-12-18T18:58:10.134Z,71.82
2022-12-18T19:01:18.016Z,69.53
2022-12-18T19:04:20.879Z,68.35
2022-12-18T19:07:30.347Z,67.54
2022-12-18T19:10:33.675Z,68.44
2022-12-18T19:13:36.318Z,70.24
2022-12-18T19:16:39.609Z,70.76
2022-12-18T19:19:42.423Z,70.67
2022-12-18T19:22:54.972Z,69.93
2022-12-18T19:26:26.932Z,71.76
2022-12-18T19:29:26.554Z,74.74
2022-12-18T19:32:29.155Z,73.74
2022-12-18T19:35:31.744Z,73.95
2022-12-18T19:38:34.965Z,76.28
2022-12-18T19:41:38.002Z,74.85
2022-12-18T19:44:41.081Z,71.61
2022-12-18T19:47:44.023Z,70.72
2022-12-18T19:50:46.583Z,70.45
2022-12-18T19:53:54.942Z,70.95
2022-12-18T19:57:00.630Z,71.60
2022-12-18T20:00:04.139Z,72.25
2022-12-18T20:03:25.248Z,73.64
2022-12-18T20:06:32.510Z,72.63
2022-12-18T20:09:36.849Z,73.10
2022-12-18T20:12:39.822Z,74.60
2022-12-18T20:15:45.363Z,75.71
2022-12-18T20:18:49.217Z,76.26
2022-12-18T20:21:51.750Z,74.60
2022-12-18T20:24:54.300Z,75.33
2022-12-18T20:27:56.873Z,75.84
2022-12-18T20:31:02.134Z,75.30
2022-12-18T20:34:06.217Z,74.80
2022-12-18T20:37:19.462Z,73.67
2022-12-18T20:40:23.619Z,75.35
2022-12-18T20:43:26.157Z,75.52
2022-12-18T20:46:28.593Z,74.96
2022-12-18T20:49:30.997Z,75.72
2022-12-18T20:52:33.622Z,74.10
2022-12-18T20:55:41.394Z,73.18
2022-12-18T20:58:44.135Z,72.93
2022-12-18T21:01:48.813Z,72.88
2022-12-18T21:04:53.261Z,72.61
2022-12-18T21:07:55.734Z,73.11
2022-12-18T21:11:35.842Z,72.38
2022-12-18T21:14:38.269Z,72.64
2022-12-18T21:17:45.012Z,72.54
2022-12-18T21:20:47.989Z,73.59
2022-12-18T21:23:51.160Z,72.31
2022-12-18T21:26:54.465Z,73.36
2022-12-18T21:29:56.910Z,74.55
2022-12-18T21:32:59.498Z,73.69
2022-12-18T21:36:06.473Z,74.45
2022-12-18T21:39:09.114Z,73.53
2022-12-18T21:42:30.454Z,74.64
2022-12-18T21:45:33.197Z,72.94
2022-12-18T21:48:38.406Z,74.50
2022-12-18T21:51:41.222Z,74.51
2022-12-18T21:54:43.687Z,74.22
2022-12-18T21:57:46.246Z,74.90
2022-12-18T22:00:50.123Z,74.46
2022-12-18T22:03:53.045Z,74.51
2022-12-18T22:06:55.755Z,76.01
2022-12-18T22:09:58.456Z,74.32
2022-12-18T22:13:02.311Z,75.28
2022-12-18T22:16:05.050Z,75.67
2022-12-18T22:19:07.697Z,76.58
2022-12-18T22:22:10.070Z,76.54
2022-12-18T22:25:12.591Z,76.74
2022-12-18T22:28:33.323Z,75.27
2022-12-18T22:31:36.023Z,76.10
2022-12-18T22:34:39.453Z,77.15
2022-12-18T22:37:41.842Z,76.95
2022-12-18T22:40:44.213Z,76.97
2022-12-18T22:43:46.654Z,75.72
2022-12-18T22:47:05.519Z,75.64
2022-12-18T22:50:12.997Z,76.74
2022-12-18T22:53:15.378Z,77.37
2022-12-18T22:56:21.366Z,77.17
2022-12-18T22:59:24.310Z,77.11
2022-12-18T23:02:26.978Z,77.03
2022-12-18T23:05:30.958Z,76.11
2022-12-18T23:08:34.876Z,76.79
2022-12-18T23:11:37.267Z,78.52
2022-12-18T23:14:39.618Z,78.51
2022-12-18T23:17:41.981Z,78.79
2022-12-18T23:20:44.371Z,79.61
2022-12-18T23:23:46.810Z,78.40
2022-12-18T23:26:49.210Z,78.52
2022-12-18T23:29:51.585Z,78.60
2022-12-18T23:32:55.118Z,79.28
2022-12-18T23:36:02.209Z,79.69
2022-12-18T23:39:04.718Z,79.42
2022-12-18T23:42:07.092Z,78.22
2022-12-18T23:45:15.859Z,78.66
2022-12-18T23:48:21.154Z,77.72
2022-12-18T23:51:25.627Z,77.53
2022-12-18T23:54:33.232Z,77.43
2022-12-18T23:57:36.139Z,78.67
